Time;durP1;ratioP1;P1;durP2;ratioP2;P2;SDS_P1;SDS_P2;PMS_P1;PMS_P2;Temp;Humidity;BMP_temperature;BMP_pressure;BME280_temperature;BME280_humidity;BME280_pressure;Samples;Min_cycle;Max_cycle;Signal;HPM_P1;HPM_P2
2023/06/18 00:00:41;;;;;;;26.10;23.40;;;17.00;99.90;;;;;;5051722;28;20438;-49
2023/06/18 00:03:08;;;;;;;25.30;22.87;;;16.80;99.90;;;;;;5051789;28;20437;-49
2023/06/18 00:05:36;;;;;;;26.17;23.00;;;17.10;99.90;;;;;;5051837;28;20409;-49
2023/06/18 00:08:02;;;;;;;25.57;23.27;;;16.80;99.90;;;;;;5051718;28;20460;-49
2023/06/18 00:10:29;;;;;;;25.03;22.73;;;16.70;99.90;;;;;;5051556;28;20439;-48
2023/06/18 00:12:56;;;;;;;25.60;22.97;;;16.60;99.90;;;;;;5035354;28;20450;-49
2023/06/18 00:15:23;;;;;;;25.20;22.87;;;16.70;99.90;;;;;;5055388;28;20954;-48
2023/06/18 00:17:50;;;;;;;25.70;23.30;;;17.10;99.90;;;;;;5055158;28;20472;-49
2023/06/18 00:20:16;;;;;;;26.40;24.03;;;17.10;99.90;;;;;;5055536;28;20436;-47
2023/06/18 00:22:48;;;;;;;24.47;22.13;;;17.00;99.90;;;;;;5055274;28;20449;-48
2023/06/18 00:25:15;;;;;;;25.03;22.80;;;16.60;99.90;;;;;;5055512;28;20434;-49
2023/06/18 00:27:43;;;;;;;25.33;23.00;;;16.60;99.90;;;;;;5055784;28;20527;-48
2023/06/18 00:30:10;;;;;;;28.40;24.07;;;16.30;99.90;;;;;;5054890;28;20435;-48
2023/06/18 00:32:37;;;;;;;25.30;22.90;;;16.60;99.90;;;;;;5037603;28;20453;-49
2023/06/18 00:35:05;;;;;;;24.27;21.97;;;17.00;99.90;;;;;;5037410;28;20464;-49
2023/06/18 00:37:34;;;;;;;26.37;23.93;;;16.60;99.90;;;;;;5055050;28;20472;-48
2023/06/18 00:40:02;;;;;;;25.23;23.03;;;16.90;99.90;;;;;;5054855;28;21000;-49
2023/06/18 00:42:28;;;;;;;26.37;23.90;;;16.70;99.90;;;;;;5037320;28;20559;-49
2023/06/18 00:44:57;;;;;;;25.37;23.07;;;16.40;99.90;;;;;;5055221;28;20443;-49
2023/06/18 00:47:24;;;;;;;25.70;23.40;;;16.50;99.90;;;;;;5037050;28;20495;-49
2023/06/18 00:49:51;;;;;;;25.27;23.10;;;16.50;99.90;;;;;;5054860;28;20882;-50
2023/06/18 00:52:23;;;;;;;23.80;21.70;;;16.30;99.90;;;;;;5037262;28;20431;-49
2023/06/18 00:54:51;;;;;;;26.30;23.83;;;16.80;99.90;;;;;;5055148;28;20432;-49
2023/06/18 00:57:21;;;;;;;26.80;24.30;;;16.60;99.90;;;;;;5054914;28;20533;-49
2023/06/18 00:59:50;;;;;;;26.23;23.93;;;16.60;99.90;;;;;;5054717;28;20437;-49
2023/06/18 01:02:23;;;;;;;24.90;22.50;;;16.60;99.90;;;;;;5055385;28;20923;-49
2023/06/18 01:04:55;;;;;;;24.67;22.57;;;16.30;99.90;;;;;;5055114;28;20933;-49
2023/06/18 01:07:22;;;;;;;24.60;22.40;;;16.70;99.90;;;;;;5054742;28;20459;-48
2023/06/18 01:09:53;;;;;;;26.97;24.47;;;16.40;99.90;;;;;;5054481;28;20434;-49
2023/06/18 01:12:22;;;;;;;24.33;22.10;;;16.60;99.90;;;;;;5054775;28;20450;-49
2023/06/18 01:14:51;;;;;;;25.83;23.33;;;16.10;99.90;;;;;;5054598;28;20450;-50
2023/06/18 01:17:19;;;;;;;24.93;22.70;;;16.20;99.90;;;;;;5053936;28;20546;-48
2023/06/18 01:19:49;;;;;;;24.27;22.03;;;16.50;99.90;;;;;;5054038;28;20434;-50
2023/06/18 01:22:24;;;;;;;24.90;22.53;;;16.70;99.90;;;;;;5036299;28;20829;-49
2023/06/18 01:24:56;;;;;;;28.03;25.37;;;16.00;99.90;;;;;;5054380;28;20433;-49
2023/06/18 01:27:27;;;;;;;24.07;21.77;;;16.60;99.90;;;;;;5036737;28;20467;-50
2023/06/18 01:29:57;;;;;;;27.67;24.97;;;16.00;99.90;;;;;;5053862;28;20918;-50
2023/06/18 01:32:23;;;;;;;28.80;26.10;;;16.40;99.90;;;;;;5036031;28;20656;-50
2023/06/18 01:34:53;;;;;;;26.73;24.20;;;16.60;99.90;;;;;;5054032;28;20435;-49
2023/06/18 01:37:37;;;;;;;25.00;22.57;;;16.40;99.90;;;;;;5036121;28;20475;-50
2023/06/18 01:40:26;;;;;;;26.40;23.83;;;16.10;99.90;;;;;;5053682;28;20435;-50
2023/06/18 01:43:00;;;;;;;25.47;23.23;;;16.10;99.90;;;;;;5054059;28;20448;-50
2023/06/18 01:45:30;;;;;;;26.63;24.23;;;16.10;99.90;;;;;;5036135;28;20452;-49
2023/06/18 01:48:02;;;;;;;27.27;24.57;;;16.60;99.90;;;;;;5035878;28;20524;-50
2023/06/18 01:50:31;;;;;;;24.50;22.33;;;16.00;99.90;;;;;;5035812;28;20420;-49
2023/06/18 01:52:59;;;;;;;26.70;24.20;;;15.80;99.90;;;;;;5053857;28;20413;-50
2023/06/18 01:55:28;;;;;;;25.90;23.70;;;16.10;99.90;;;;;;5053629;28;20942;-50
2023/06/18 01:57:57;;;;;;;28.33;25.50;;;16.00;99.90;;;;;;5035401;28;20452;-49
2023/06/18 02:00:24;;;;;;;24.07;21.97;;;16.00;99.90;;;;;;5035385;28;20439;-50
2023/06/18 02:02:51;;;;;;;24.53;22.43;;;16.20;99.90;;;;;;5053467;28;21010;-50
2023/06/18 02:05:18;;;;;;;27.20;24.70;;;16.00;99.90;;;;;;5053625;28;20426;-51
2023/06/18 02:07:45;;;;;;;25.80;23.40;;;16.10;99.90;;;;;;5053230;28;20870;-50
2023/06/18 02:10:11;;;;;;;27.10;24.70;;;15.70;99.90;;;;;;5034978;28;20454;-49
2023/06/18 02:12:38;;;;;;;28.23;25.63;;;15.80;99.90;;;;;;5053244;28;20932;-50
2023/06/18 02:15:07;;;;;;;26.83;24.03;;;15.50;99.90;;;;;;5053260;28;20432;-50
2023/06/18 02:17:35;;;;;;;25.30;23.10;;;15.90;99.90;;;;;;5035210;28;20450;-50
2023/06/18 02:20:01;;;;;;;26.73;24.00;;;15.90;99.90;;;;;;5052743;28;20508;-49
2023/06/18 02:22:28;;;;;;;28.10;25.20;;;15.90;99.90;;;;;;5053128;28;20430;-50
2023/06/18 02:24:55;;;;;;;28.03;25.30;;;16.30;99.90;;;;;;5053103;28;20428;-49
2023/06/18 02:27:22;;;;;;;26.87;24.37;;;15.70;99.90;;;;;;5034921;28;20481;-49
2023/06/18 02:29:48;;;;;;;27.03;24.40;;;16.20;99.90;;;;;;5034891;28;20443;-49
2023/06/18 02:32:16;;;;;;;26.47;24.10;;;15.80;99.90;;;;;;5035020;28;20451;-49
2023/06/18 02:34:43;;;;;;;26.30;23.57;;;15.40;99.90;;;;;;5052761;28;20733;-49
2023/06/18 02:37:10;;;;;;;26.30;23.70;;;16.20;99.90;;;;;;5052421;28;20464;-49
2023/06/18 02:39:37;;;;;;;26.03;23.53;;;16.30;99.90;;;;;;5034450;28;20475;-50
2023/06/18 02:42:06;;;;;;;26.20;23.87;;;15.80;99.90;;;;;;5034829;28;20449;-51
2023/06/18 02:44:33;;;;;;;27.03;24.50;;;15.80;99.90;;;;;;5052775;28;20444;-50
2023/06/18 02:47:00;;;;;;;26.20;23.90;;;16.20;99.90;;;;;;5034796;28;20471;-51
2023/06/18 02:49:28;;;;;;;25.50;23.17;;;16.20;99.90;;;;;;5034235;28;20446;-50
2023/06/18 02:51:54;;;;;;;26.60;24.40;;;16.20;99.90;;;;;;5052549;28;20441;-50
2023/06/18 02:54:21;;;;;;;26.87;24.40;;;15.80;99.90;;;;;;5034787;28;20474;-50
2023/06/18 02:56:48;;;;;;;26.40;24.03;;;15.90;99.90;;;;;;5034603;28;20443;-50
2023/06/18 02:59:14;;;;;;;25.17;22.77;;;15.90;99.90;;;;;;5034046;28;20506;-49
2023/06/18 03:01:45;;;;;;;27.40;24.50;;;15.70;99.90;;;;;;5034464;28;20541;-49
2023/06/18 03:04:11;;;;;;;27.13;24.73;;;15.90;99.90;;;;;;5034339;28;20493;-50
2023/06/18 03:06:39;;;;;;;26.13;23.93;;;15.40;99.90;;;;;;5034207;28;20987;-51
2023/06/18 03:09:06;;;;;;;25.53;23.37;;;15.70;99.90;;;;;;5052009;28;20442;-50
2023/06/18 03:11:33;;;;;;;26.53;24.13;;;15.80;99.90;;;;;;5034355;28;20461;-51
2023/06/18 03:14:01;;;;;;;25.63;23.50;;;16.00;99.90;;;;;;5034781;28;20798;-50
2023/06/18 03:16:28;;;;;;;27.40;24.80;;;15.60;99.90;;;;;;5052253;28;20431;-51
2023/06/18 03:18:56;;;;;;;26.20;23.80;;;15.80;99.90;;;;;;5034016;28;20478;-50
2023/06/18 03:21:23;;;;;;;26.27;23.80;;;16.00;99.90;;;;;;5034261;28;20442;-50
2023/06/18 03:23:55;;;;;;;27.03;24.43;;;16.00;99.90;;;;;;5034562;28;20455;-54
2023/06/18 03:26:22;;;;;;;26.90;24.60;;;15.70;99.90;;;;;;5034254;28;20510;-50
2023/06/18 03:28:48;;;;;;;24.80;22.60;;;16.20;99.90;;;;;;5033836;28;20999;-49
2023/06/18 03:31:15;;;;;;;25.70;23.40;;;15.90;99.90;;;;;;5034090;28;20970;-49
2023/06/18 03:33:42;;;;;;;27.00;24.47;;;16.10;99.90;;;;;;5034258;28;20429;-50
2023/06/18 03:36:11;;;;;;;28.43;25.73;;;16.30;99.90;;;;;;5034124;28;20489;-50
2023/06/18 03:38:40;;;;;;;28.57;25.80;;;15.50;99.90;;;;;;5033592;28;20476;-51
2023/06/18 03:41:08;;;;;;;26.50;23.80;;;15.80;99.90;;;;;;5051938;28;20438;-50
2023/06/18 03:43:35;;;;;;;26.93;24.33;;;15.80;99.90;;;;;;5034027;28;20479;-51
2023/06/18 03:46:02;;;;;;;27.53;24.67;;;15.80;99.90;;;;;;5033943;28;20442;-51
2023/06/18 03:48:30;;;;;;;27.47;24.67;;;16.30;99.90;;;;;;5036056;28;20962;-51
2023/06/18 03:50:57;;;;;;;26.67;24.27;;;15.90;99.90;;;;;;5038294;28;20451;-49
2023/06/18 03:53:25;;;;;;;27.10;24.40;;;15.90;99.90;;;;;;5038073;28;20458;-50
2023/06/18 03:55:52;;;;;;;27.17;24.57;;;15.80;99.90;;;;;;5038064;28;20815;-50
2023/06/18 03:58:21;;;;;;;27.37;24.97;;;16.30;99.90;;;;;;5037369;28;20474;-49
2023/06/18 04:00:49;;;;;;;28.10;25.37;;;15.80;99.90;;;;;;5037781;28;20512;-49
2023/06/18 04:03:16;;;;;;;28.27;25.57;;;16.10;99.90;;;;;;5037908;28;20978;-50
2023/06/18 04:05:42;;;;;;;27.10;24.37;;;16.20;99.90;;;;;;5037809;28;20781;-50
2023/06/18 04:08:09;;;;;;;26.87;24.37;;;16.40;99.90;;;;;;5037292;28;20471;-51
2023/06/18 04:10:36;;;;;;;25.60;23.30;;;17.10;99.90;;;;;;5055614;28;20448;-50
2023/06/18 04:13:03;;;;;;;27.63;24.97;;;16.30;99.90;;;;;;5037877;28;20563;-49
2023/06/18 04:15:31;;;;;;;25.53;23.03;;;16.60;99.90;;;;;;5038020;28;20985;-49
2023/06/18 04:17:59;;;;;;;26.27;23.97;;;16.90;99.90;;;;;;5037567;28;20499;-50
2023/06/18 04:20:26;;;;;;;24.97;22.47;;;17.10;99.90;;;;;;5037399;28;20474;-50
2023/06/18 04:22:53;;;;;;;26.47;23.93;;;16.90;99.90;;;;;;5037582;28;20458;-49
2023/06/18 04:25:21;;;;;;;26.77;24.03;;;17.30;99.90;;;;;;5037812;28;20459;-49
2023/06/18 04:27:50;;;;;;;27.97;25.33;;;17.70;99.90;;;;;;5037515;28;20475;-50
2023/06/18 04:30:18;;;;;;;30.10;27.50;;;18.00;99.90;;;;;;5037192;28;20504;-49
2023/06/18 04:32:46;;;;;;;27.80;25.10;;;17.70;99.90;;;;;;5037380;28;20449;-50
2023/06/18 04:35:13;;;;;;;29.10;26.43;;;17.80;99.90;;;;;;5037423;28;20485;-49
2023/06/18 04:37:41;;;;;;;26.17;23.87;;;17.90;99.90;;;;;;5037066;28;20463;-50
2023/06/18 04:40:10;;;;;;;29.53;26.57;;;18.00;99.90;;;;;;5036440;28;20477;-50
2023/06/18 04:42:38;;;;;;;26.63;24.23;;;18.20;99.90;;;;;;5037149;28;20449;-50
2023/06/18 04:45:08;;;;;;;28.07;25.10;;;18.40;99.90;;;;;;5037053;28;20954;-50
2023/06/18 04:47:35;;;;;;;28.53;25.90;;;18.70;99.90;;;;;;5036861;28;20900;-50
2023/06/18 04:50:05;;;;;;;30.50;27.80;;;18.70;99.90;;;;;;5036679;28;20457;-50
2023/06/18 04:52:35;;;;;;;27.23;24.83;;;19.00;99.90;;;;;;5036917;28;20451;-50
2023/06/18 04:55:02;;;;;;;27.27;24.77;;;19.30;99.90;;;;;;5036547;28;20622;-49
2023/06/18 04:57:29;;;;;;;28.27;25.87;;;19.00;99.90;;;;;;5036495;28;20997;-50
2023/06/18 04:59:56;;;;;;;25.70;23.50;;;19.30;99.90;;;;;;5035959;28;20509;-51
2023/06/18 05:02:22;;;;;;;28.63;26.17;;;19.30;99.90;;;;;;5036653;28;20939;-50
2023/06/18 05:04:49;;;;;;;27.63;25.13;;;19.50;99.90;;;;;;5036541;28;20460;-50
2023/06/18 05:07:17;;;;;;;28.03;25.50;;;19.80;99.90;;;;;;5036492;28;20465;-50
2023/06/18 05:09:45;;;;;;;27.53;25.27;;;20.20;99.90;;;;;;5036223;28;20935;-51
2023/06/18 05:12:12;;;;;;;27.20;24.80;;;20.10;99.90;;;;;;5054372;28;20448;-49
2023/06/18 05:14:38;;;;;;;25.97;23.67;;;20.00;99.90;;;;;;5036639;28;20454;-50
2023/06/18 05:17:06;;;;;;;26.63;24.30;;;20.10;99.90;;;;;;5036565;28;20821;-50
2023/06/18 05:19:32;;;;;;;23.83;21.83;;;20.20;99.90;;;;;;5035891;28;20472;-50
2023/06/18 05:21:59;;;;;;;25.07;22.77;;;20.30;99.90;;;;;;5054329;28;20431;-51
2023/06/18 05:24:28;;;;;;;26.60;23.87;;;20.40;99.90;;;;;;5036123;28;20452;-51
2023/06/18 05:26:55;;;;;;;24.97;22.57;;;20.50;99.90;;;;;;5036187;28;20447;-51
2023/06/18 05:29:23;;;;;;;24.27;22.20;;;20.70;99.90;;;;;;5036016;28;20485;-51
2023/06/18 05:31:52;;;;;;;21.17;19.17;;;20.80;99.90;;;;;;5036179;28;20447;-51
2023/06/18 05:34:29;;;;;;;23.07;21.00;;;20.40;99.90;;;;;;5036081;28;20459;-51
2023/06/18 05:36:55;;;;;;;16.80;15.33;;;21.00;99.90;;;;;;5035757;28;20998;-50
2023/06/18 05:39:22;;;;;;;15.93;14.57;;;21.00;99.90;;;;;;5053369;28;20479;-51
2023/06/18 05:41:51;;;;;;;15.30;13.93;;;21.00;99.90;;;;;;5036141;28;20538;-50
2023/06/18 05:44:19;;;;;;;15.50;13.90;;;21.10;99.90;;;;;;5036185;28;20840;-50
2023/06/18 05:46:46;;;;;;;14.27;12.87;;;21.10;99.90;;;;;;5035641;28;20967;-50
2023/06/18 05:49:15;;;;;;;15.47;14.13;;;21.00;99.90;;;;;;5035335;28;20458;-50
2023/06/18 05:51:45;;;;;;;15.40;13.90;;;21.30;99.90;;;;;;5035854;28;20453;-50
2023/06/18 05:54:11;;;;;;;16.53;15.13;;;21.40;99.90;;;;;;5053530;28;20441;-51
2023/06/18 05:56:38;;;;;;;14.90;13.60;;;21.50;99.90;;;;;;5053333;28;20527;-51
2023/06/18 05:59:06;;;;;;;13.57;11.80;;;21.40;99.90;;;;;;5035202;28;20482;-52
2023/06/18 06:01:38;;;;;;;13.90;12.70;;;21.70;99.90;;;;;;5035546;28;20462;-51
2023/06/18 06:04:04;;;;;;;12.13;11.03;;;21.80;99.90;;;;;;5053334;28;20437;-51
2023/06/18 06:06:31;;;;;;;10.93;9.93;;;21.90;99.90;;;;;;5035352;28;20453;-50
2023/06/18 06:08:58;;;;;;;11.60;10.10;;;22.00;99.90;;;;;;5034876;28;20527;-50
2023/06/18 06:11:25;;;;;;;11.47;10.30;;;22.10;99.90;;;;;;5034582;28;20450;-49
2023/06/18 06:13:52;;;;;;;10.87;9.87;;;22.20;99.90;;;;;;5035569;28;21030;-50
2023/06/18 06:16:20;;;;;;;10.63;9.73;;;22.30;99.90;;;;;;5035601;28;20869;-50
2023/06/18 06:18:49;;;;;;;12.03;10.93;;;22.40;99.90;;;;;;5034514;28;20470;-50
2023/06/18 06:21:16;;;;;;;13.87;11.60;;;22.30;99.90;;;;;;5035222;28;20967;-50
2023/06/18 06:23:43;;;;;;;11.07;10.00;;;22.60;99.90;;;;;;5035362;28;20860;-50
2023/06/18 06:26:09;;;;;;;10.50;9.50;;;22.60;99.90;;;;;;5053000;28;20435;-49
2023/06/18 06:28:37;;;;;;;10.73;9.73;;;22.70;99.90;;;;;;5034606;28;20485;-49
2023/06/18 06:31:03;;;;;;;10.13;9.13;;;22.70;99.60;;;;;;5035023;28;20438;-50
2023/06/18 06:33:31;;;;;;;10.27;9.33;;;22.80;99.30;;;;;;5035110;28;20479;-50
2023/06/18 06:35:58;;;;;;;10.23;9.33;;;22.80;99.10;;;;;;5052831;28;20444;-51
2023/06/18 06:38:25;;;;;;;11.67;10.40;;;22.90;99.00;;;;;;5034609;28;20479;-50
2023/06/18 06:40:52;;;;;;;8.23;7.53;;;22.90;98.60;;;;;;5034652;28;21010;-50
2023/06/18 06:43:19;;;;;;;8.73;7.20;;;22.90;98.60;;;;;;5034660;28;20448;-50
2023/06/18 06:46:09;;;;;;;7.90;7.10;;;23.00;98.10;;;;;;5044365;28;20471;-50
2023/06/18 06:49:07;;;;;;;9.87;7.57;;;22.90;97.70;;;;;;5034519;28;20451;-50
2023/06/18 06:51:55;;;;;;;8.63;7.77;;;22.90;97.70;;;;;;5053193;28;20422;-50
2023/06/18 06:54:21;;;;;;;7.43;6.80;;;23.00;97.60;;;;;;5034736;28;20461;-50
2023/06/18 06:56:48;;;;;;;7.93;7.23;;;23.00;97.30;;;;;;5034567;28;20509;-50
2023/06/18 06:59:15;;;;;;;7.73;7.00;;;23.00;97.20;;;;;;5033772;28;20477;-50
2023/06/18 07:01:44;;;;;;;6.77;6.17;;;23.00;97.20;;;;;;5034253;28;20443;-49
2023/06/18 07:04:12;;;;;;;8.23;7.43;;;23.00;97.00;;;;;;5034291;28;20449;-51
2023/06/18 07:06:39;;;;;;;9.93;9.03;;;23.00;96.70;;;;;;5051815;28;20437;-50
2023/06/18 07:09:06;;;;;;;9.10;8.40;;;23.00;96.80;;;;;;5051989;28;20440;-50
2023/06/18 07:11:33;;;;;;;8.90;8.00;;;23.00;96.80;;;;;;5052251;28;20451;-49
2023/06/18 07:14:00;;;;;;;8.73;8.03;;;22.80;96.70;;;;;;5052337;28;20450;-50
2023/06/18 07:16:26;;;;;;;8.73;7.93;;;23.00;96.70;;;;;;5034352;28;20828;-50
2023/06/18 07:18:53;;;;;;;8.23;7.53;;;23.00;96.60;;;;;;5051842;28;20605;-51
2023/06/18 07:21:21;;;;;;;8.60;7.80;;;22.80;96.40;;;;;;5052067;28;20472;-51
2023/06/18 07:23:48;;;;;;;7.40;6.77;;;23.10;96.50;;;;;;5052041;28;20490;-51
2023/06/18 07:26:14;;;;;;;10.17;7.33;;;23.10;96.50;;;;;;5051985;28;20439;-53
2023/06/18 07:28:41;;;;;;;9.53;8.53;;;23.10;96.50;;;;;;5065403;22;20506;-46
2023/06/18 07:31:08;;;;;;;8.70;7.80;;;23.20;96.50;;;;;;5052002;28;20441;-46
2023/06/18 07:33:34;;;;;;;8.87;8.07;;;23.20;96.50;;;;;;5051941;28;20498;-47
2023/06/18 07:36:01;;;;;;;10.33;9.33;;;23.20;96.60;;;;;;5033524;28;20655;-45
2023/06/18 07:38:29;;;;;;;7.93;7.23;;;23.50;96.80;;;;;;5051392;28;20457;-47
2023/06/18 07:40:56;;;;;;;7.90;7.10;;;23.20;96.70;;;;;;5051698;28;20570;-46
2023/06/18 07:43:22;;;;;;;6.90;6.30;;;23.20;96.60;;;;;;5034072;28;20455;-47
2023/06/18 07:45:49;;;;;;;8.30;7.57;;;23.20;96.40;;;;;;5051637;28;20534;-46
2023/06/18 07:48:16;;;;;;;8.50;7.10;;;23.10;96.20;;;;;;5051312;28;20457;-46
2023/06/18 07:50:42;;;;;;;8.53;7.53;;;23.30;95.60;;;;;;5051581;28;20473;-47
2023/06/18 07:53:09;;;;;;;8.20;7.33;;;23.30;95.30;;;;;;5051887;28;20918;-47
2023/06/18 07:55:37;;;;;;;7.57;6.87;;;23.30;95.20;;;;;;5051391;28;20431;-46
2023/06/18 07:58:03;;;;;;;7.90;7.20;;;23.30;95.50;;;;;;5051183;28;20462;-48
2023/06/18 08:00:30;;;;;;;7.30;6.70;;;23.20;95.40;;;;;;5033549;28;20595;-47
2023/06/18 08:02:57;;;;;;;7.90;7.27;;;23.30;95.10;;;;;;5051961;28;20442;-47
2023/06/18 08:05:25;;;;;;;9.10;8.30;;;23.40;95.20;;;;;;5033782;28;20455;-47
2023/06/18 08:07:51;;;;;;;8.47;7.70;;;23.40;94.80;;;;;;5051396;28;20453;-47
2023/06/18 08:10:18;;;;;;;8.23;7.40;;;23.50;94.70;;;;;;5051227;28;20922;-47
2023/06/18 08:12:46;;;;;;;8.07;7.27;;;23.40;94.20;;;;;;5033799;28;20453;-46
2023/06/18 08:15:12;;;;;;;6.63;6.03;;;23.60;94.10;;;;;;5051399;28;20529;-48
2023/06/18 08:17:39;;;;;;;7.73;6.93;;;23.60;93.70;;;;;;5051439;28;20450;-47
2023/06/18 08:20:07;;;;;;;5.83;5.33;;;23.40;93.20;;;;;;5051090;28;20477;-47
2023/06/18 08:22:34;;;;;;;6.70;6.10;;;23.60;93.20;;;;;;5051152;28;20444;-46
2023/06/18 08:25:01;;;;;;;6.57;5.97;;;23.70;93.20;;;;;;5051506;28;20437;-47
2023/06/18 08:27:27;;;;;;;7.00;6.27;;;23.70;92.50;;;;;;5051096;28;20821;-46
2023/06/18 08:29:55;;;;;;;6.37;5.80;;;23.70;92.20;;;;;;5051137;28;20445;-48
2023/06/18 08:32:22;;;;;;;7.20;6.50;;;23.70;92.20;;;;;;5051442;28;20435;-47
2023/06/18 08:34:48;;;;;;;6.60;6.10;;;23.80;92.20;;;;;;5053994;28;20440;-47
2023/06/18 08:37:15;;;;;;;8.57;7.60;;;23.40;92.40;;;;;;5036876;28;20445;-48
2023/06/18 08:39:41;;;;;;;7.93;6.17;;;23.90;92.10;;;;;;5054459;28;20441;-46
2023/06/18 08:42:09;;;;;;;7.97;6.90;;;24.00;91.60;;;;;;5054931;28;20772;-46
2023/06/18 08:44:35;;;;;;;5.73;4.50;;;24.10;91.50;;;;;;5054568;28;20563;-46
2023/06/18 08:47:05;;;;;;;7.27;6.57;;;24.30;91.20;;;;;;5054818;28;20434;-47
2023/06/18 08:49:32;;;;;;;6.60;6.03;;;24.30;90.90;;;;;;5054234;28;20444;-46
2023/06/18 08:52:01;;;;;;;7.27;6.67;;;24.40;90.90;;;;;;5054538;28;20430;-46
2023/06/18 08:54:32;;;;;;;6.97;6.37;;;24.50;90.90;;;;;;5054564;28;20438;-47
2023/06/18 08:57:05;;;;;;;6.57;6.07;;;24.60;90.70;;;;;;5054663;28;20863;-46
2023/06/18 08:59:33;;;;;;;8.20;7.50;;;24.70;90.40;;;;;;5054195;28;20442;-45
2023/06/18 09:02:00;;;;;;;8.57;6.73;;;24.80;90.30;;;;;;5054633;28;20434;-47
2023/06/18 09:04:29;;;;;;;6.77;6.17;;;24.90;89.80;;;;;;5054356;28;20947;-48
2023/06/18 09:06:56;;;;;;;7.13;6.53;;;25.00;89.60;;;;;;5054072;28;20467;-47
2023/06/18 09:09:24;;;;;;;6.27;5.67;;;25.00;89.30;;;;;;5035944;28;20742;-46
2023/06/18 09:11:50;;;;;;;6.67;5.70;;;25.20;89.60;;;;;;5054218;28;20525;-47
2023/06/18 09:14:19;;;;;;;6.70;6.10;;;25.30;87.10;;;;;;5036182;28;20447;-47
2023/06/18 09:16:46;;;;;;;6.47;5.87;;;25.20;86.30;;;;;;5054303;28;20650;-45
2023/06/18 09:19:13;;;;;;;6.73;6.13;;;25.20;87.20;;;;;;5053960;28;20466;-46
2023/06/18 09:21:42;;;;;;;6.33;5.47;;;25.10;87.70;;;;;;5054368;28;20489;-46
2023/06/18 09:24:10;;;;;;;6.00;5.40;;;25.20;86.90;;;;;;5054187;28;20431;-45
2023/06/18 09:26:37;;;;;;;7.77;5.80;;;25.20;86.30;;;;;;5054503;28;20431;-47
2023/06/18 09:29:05;;;;;;;6.00;5.37;;;25.20;85.70;;;;;;5054233;28;20466;-46
2023/06/18 09:31:32;;;;;;;6.03;5.40;;;25.20;84.80;;;;;;5054415;28;20437;-46
2023/06/18 09:34:12;;;;;;;5.20;4.80;;;25.10;84.60;;;;;;5054382;28;20956;-44
2023/06/18 09:36:41;;;;;;;6.50;6.00;;;25.20;84.50;;;;;;5037013;28;20447;-49
2023/06/18 09:39:18;;;;;;;6.97;5.77;;;25.20;84.50;;;;;;5053892;28;20455;-47
2023/06/18 09:41:45;;;;;;;6.77;6.10;;;25.20;83.60;;;;;;5054023;28;20997;-47
2023/06/18 09:44:14;;;;;;;9.10;6.50;;;25.40;83.60;;;;;;5054080;28;20457;-46
2023/06/18 09:46:43;;;;;;;8.23;6.30;;;25.30;82.80;;;;;;5053614;28;20493;-46
2023/06/18 09:49:11;;;;;;;6.80;6.10;;;25.30;82.70;;;;;;5054446;28;20790;-46
2023/06/18 09:51:40;;;;;;;6.57;5.90;;;25.20;83.10;;;;;;5036731;28;20447;-48
2023/06/18 09:54:09;;;;;;;6.00;5.40;;;25.20;83.30;;;;;;5036283;28;20461;-47
2023/06/18 09:56:36;;;;;;;6.33;5.70;;;25.30;82.80;;;;;;5054575;28;20435;-46
2023/06/18 09:59:03;;;;;;;6.80;6.10;;;25.20;82.70;;;;;;5053003;28;20454;-47
2023/06/18 10:01:45;;;;;;;6.57;5.70;;;25.30;82.90;;;;;;5053346;28;20497;-47
2023/06/18 10:04:12;;;;;;;9.90;7.10;;;25.30;82.20;;;;;;5053296;28;20523;-47
2023/06/18 10:06:40;;;;;;;5.30;4.87;;;25.30;81.70;;;;;;5053556;28;20431;-46
2023/06/18 10:09:08;;;;;;;6.40;5.50;;;25.40;80.80;;;;;;5034722;28;20524;-46
2023/06/18 10:11:38;;;;;;;6.00;5.50;;;25.40;80.70;;;;;;5053528;28;20445;-47
2023/06/18 10:14:10;;;;;;;6.47;4.83;;;25.30;80.30;;;;;;5053256;28;20427;-47
2023/06/18 10:16:39;;;;;;;5.80;5.27;;;25.30;79.90;;;;;;5053082;28;20812;-48
2023/06/18 10:19:12;;;;;;;5.30;4.80;;;25.30;79.30;;;;;;5052571;28;20462;-47
2023/06/18 10:21:47;;;;;;;5.43;4.70;;;25.30;78.90;;;;;;5052418;28;20977;-48
2023/06/18 10:24:24;;;;;;;6.67;6.07;;;25.40;79.20;;;;;;5053095;28;20443;-46
2023/06/18 10:26:53;;;;;;;7.90;5.13;;;25.50;79.70;;;;;;5052947;28;20764;-48
2023/06/18 10:29:20;;;;;;;5.63;5.10;;;25.50;79.90;;;;;;5034286;28;21034;-46
2023/06/18 10:31:47;;;;;;;6.10;5.57;;;25.50;79.40;;;;;;5034608;28;20447;-47
2023/06/18 10:34:15;;;;;;;5.23;4.73;;;25.50;79.20;;;;;;5052419;28;20423;-46
2023/06/18 10:36:42;;;;;;;6.00;5.50;;;25.50;79.50;;;;;;5052645;28;20927;-46
2023/06/18 10:39:09;;;;;;;5.37;4.93;;;25.30;79.30;;;;;;5052191;28;20455;-46
2023/06/18 10:41:39;;;;;;;7.17;5.33;;;25.20;79.20;;;;;;5052195;28;21029;-47
2023/06/18 10:44:06;;;;;;;4.90;4.50;;;25.00;79.10;;;;;;5052130;28;20484;-47
2023/06/18 10:46:34;;;;;;;6.97;5.00;;;24.70;78.90;;;;;;5052082;28;20435;-47
2023/06/18 10:49:13;;;;;;;5.50;5.10;;;24.90;78.80;;;;;;5051374;28;20979;-47
2023/06/18 10:51:40;;;;;;;5.23;4.73;;;25.00;78.00;;;;;;5052569;28;20463;-48
2023/06/18 10:54:21;;;;;;;5.23;4.80;;;25.00;77.80;;;;;;5052351;28;20443;-46
2023/06/18 10:56:54;;;;;;;5.57;5.07;;;25.10;77.40;;;;;;5033120;28;20794;-47
2023/06/18 10:59:36;;;;;;;6.50;4.93;;;25.10;77.60;;;;;;5051738;28;20462;-48
2023/06/18 11:02:03;;;;;;;5.77;5.17;;;25.20;77.30;;;;;;5049080;28;20493;-47
2023/06/18 11:04:31;;;;;;;4.70;4.30;;;25.20;77.30;;;;;;5052376;28;20449;-47
2023/06/18 11:07:15;;;;;;;4.87;4.47;;;25.30;76.90;;;;;;5052075;28;20435;-48
2023/06/18 11:09:51;;;;;;;5.80;4.50;;;25.50;75.70;;;;;;5051443;28;20435;-48
2023/06/18 11:12:24;;;;;;;6.40;5.27;;;25.50;75.60;;;;;;5052374;28;20430;-46
2023/06/18 11:15:05;;;;;;;6.20;4.60;;;25.60;74.10;;;;;;5052013;28;20449;-48
2023/06/18 11:17:33;;;;;;;7.77;5.00;;;25.70;74.00;;;;;;5051930;28;20447;-46
2023/06/18 11:20:03;;;;;;;5.53;5.03;;;25.60;74.40;;;;;;5050467;28;20443;-46
2023/06/18 11:22:30;;;;;;;5.30;4.80;;;25.60;74.70;;;;;;5051777;28;20479;-46
2023/06/18 11:24:58;;;;;;;5.53;5.13;;;25.70;75.40;;;;;;5051864;28;20462;-47
2023/06/18 11:27:27;;;;;;;6.13;5.53;;;25.70;75.50;;;;;;5051465;28;20472;-47
2023/06/18 11:29:56;;;;;;;7.30;5.10;;;25.60;74.80;;;;;;5051279;28;20430;-46
2023/06/18 11:32:23;;;;;;;5.30;4.77;;;25.50;74.30;;;;;;5051414;28;20473;-46
2023/06/18 11:34:50;;;;;;;5.63;5.00;;;25.80;73.80;;;;;;5033669;28;20493;-45
2023/06/18 11:37:17;;;;;;;5.20;4.80;;;25.80;72.50;;;;;;5051694;28;20461;-45
2023/06/18 11:39:44;;;;;;;9.80;4.80;;;25.80;72.20;;;;;;5051460;28;20461;-45
2023/06/18 11:42:15;;;;;;;5.70;5.10;;;25.90;71.90;;;;;;5051587;28;20493;-46
2023/06/18 11:44:51;;;;;;;4.50;3.97;;;25.80;70.60;;;;;;5051425;28;20426;-47
2023/06/18 11:47:18;;;;;;;4.80;4.40;;;26.00;68.90;;;;;;5051608;28;20885;-46
2023/06/18 11:49:46;;;;;;;5.47;4.97;;;26.20;69.60;;;;;;5051303;28;20438;-45
2023/06/18 11:52:13;;;;;;;5.17;4.67;;;26.10;69.30;;;;;;5051613;28;20445;-46
2023/06/18 11:54:41;;;;;;;7.37;5.27;;;26.30;69.00;;;;;;5050997;28;20435;-47
2023/06/18 11:57:08;;;;;;;4.80;4.40;;;26.30;68.30;;;;;;5051045;28;20445;-46
2023/06/18 11:59:35;;;;;;;4.80;4.40;;;26.30;68.00;;;;;;5050851;28;20514;-47
2023/06/18 12:02:12;;;;;;;5.20;4.70;;;26.30;67.80;;;;;;5051264;28;20525;-46
2023/06/18 12:04:38;;;;;;;6.10;5.50;;;26.30;67.40;;;;;;5051702;28;20470;-47
2023/06/18 12:07:05;;;;;;;5.77;5.27;;;26.20;68.00;;;;;;5051437;28;20438;-47
2023/06/18 12:09:33;;;;;;;5.20;4.80;;;26.20;68.00;;;;;;5035133;28;20477;-48
2023/06/18 12:12:13;;;;;;;5.30;4.80;;;26.30;68.10;;;;;;5055577;28;20564;-46
2023/06/18 12:14:44;;;;;;;6.10;5.20;;;26.40;68.10;;;;;;5054911;28;20438;-46
2023/06/18 12:17:21;;;;;;;5.57;5.07;;;26.40;68.30;;;;;;5055423;28;20469;-46
2023/06/18 12:19:55;;;;;;;6.70;5.80;;;26.60;68.40;;;;;;5054894;28;20533;-46
2023/06/18 12:22:21;;;;;;;5.97;5.47;;;26.70;68.50;;;;;;5054841;28;20479;-46
2023/06/18 12:24:48;;;;;;;6.50;5.90;;;26.70;68.70;;;;;;5055336;28;20975;-46
2023/06/18 12:27:15;;;;;;;10.90;5.10;;;26.70;68.60;;;;;;5054694;28;20434;-47
2023/06/18 12:29:45;;;;;;;6.43;5.83;;;26.60;68.70;;;;;;5054264;28;20437;-45
2023/06/18 12:32:13;;;;;;;7.30;6.43;;;26.60;68.50;;;;;;5054816;28;20442;-47
2023/06/18 12:34:40;;;;;;;5.70;5.10;;;26.60;68.60;;;;;;5054563;28;20439;-47
2023/06/18 12:37:08;;;;;;;6.63;6.03;;;26.50;68.90;;;;;;5054370;28;20455;-47
2023/06/18 12:39:35;;;;;;;5.60;5.10;;;26.50;69.30;;;;;;5054143;28;20527;-47
2023/06/18 12:42:01;;;;;;;6.30;5.80;;;26.50;69.00;;;;;;5054332;28;20564;-47